Time;durP1;ratioP1;P1;durP2;ratioP2;P2;SDS_P1;SDS_P2;PMS_P1;PMS_P2;Temp;Humidity;BMP_temperature;BMP_pressure;BME280_temperature;BME280_humidity;BME280_pressure;Samples;Min_cycle;Max_cycle;Signal;HPM_P1;HPM_P2
2023/05/27 00:00:11;;;;;;;71.60;7.23;;;13.50;4.10;;;;;;4881822;29;20447;-80
2023/05/27 00:02:38;;;;;;;73.17;8.07;;;13.30;12.00;;;;;;4882777;29;20335;-80
2023/05/27 00:05:04;;;;;;;72.27;7.50;;;13.20;15.10;;;;;;4882530;29;20907;-80
2023/05/27 00:07:31;;;;;;;72.73;7.50;;;13.10;15.50;;;;;;4882536;29;20431;-80
2023/05/27 00:09:57;;;;;;;75.90;7.60;;;13.00;18.00;;;;;;4882326;29;20463;-80
2023/05/27 00:12:23;;;;;;;76.73;7.50;;;13.00;18.40;;;;;;4882450;29;20422;-80
2023/05/27 00:14:48;;;;;;;74.90;7.30;;;12.80;24.70;;;;;;4882143;29;20411;-80
2023/05/27 00:17:14;;;;;;;79.03;7.17;;;12.70;26.80;;;;;;4880584;29;20687;-79
2023/05/27 00:19:42;;;;;;;80.13;7.50;;;12.80;24.80;;;;;;4880637;29;20175;-79
2023/05/27 00:22:07;;;;;;;82.10;8.20;;;12.70;28.30;;;;;;4882120;29;20415;-80
2023/05/27 00:24:39;;;;;;;70.07;6.40;;;12.60;31.70;;;;;;4881137;29;20418;-80
2023/05/27 00:27:06;;;;;;;71.20;6.57;;;12.50;31.00;;;;;;4882195;29;20442;-80
2023/05/27 00:29:32;;;;;;;72.53;7.20;;;12.40;34.40;;;;;;4881969;29;20422;-80
2023/05/27 00:31:57;;;;;;;82.57;7.67;;;12.30;37.30;;;;;;4881006;29;20418;-80
2023/05/27 00:34:23;;;;;;;75.63;8.63;;;12.30;42.70;;;;;;4881279;29;20181;-80
2023/05/27 00:36:49;;;;;;;75.47;7.60;;;12.10;44.50;;;;;;4881857;29;20202;-80
2023/05/27 00:39:14;;;;;;;77.43;8.17;;;12.10;46.00;;;;;;4883981;29;20265;-80
2023/05/27 00:41:47;;;;;;;72.90;6.30;;;12.10;48.90;;;;;;4886027;29;20197;-80
2023/05/27 00:44:12;;;;;;;80.37;9.77;;;11.90;52.30;;;;;;4886225;29;20460;-80
2023/05/27 00:46:38;;;;;;;74.60;5.97;;;11.90;51.80;;;;;;4885784;29;20418;-80
2023/05/27 00:49:04;;;;;;;75.07;6.73;;;11.90;54.70;;;;;;4886038;29;20186;-80
2023/05/27 00:51:31;;;;;;;71.37;6.37;;;11.90;54.60;;;;;;4885807;29;20174;-80
2023/05/27 00:53:57;;;;;;;70.30;7.03;;;11.80;53.00;;;;;;4884370;29;20415;-80
2023/05/27 00:56:22;;;;;;;73.07;6.23;;;11.70;58.00;;;;;;4885579;29;20197;-80
2023/05/27 00:58:48;;;;;;;70.03;6.40;;;11.70;59.80;;;;;;4885532;29;20453;-80
2023/05/27 01:01:14;;;;;;;73.90;7.00;;;11.60;62.20;;;;;;4885388;29;20178;-80
2023/05/27 01:03:41;;;;;;;70.87;6.93;;;11.60;62.70;;;;;;4886049;29;20166;-80
2023/05/27 01:06:51;;;;;;;73.63;6.18;;;11.50;67.90;;;;;;4884252;29;20459;-80
2023/05/27 01:09:39;;;;;;;73.05;6.15;;;11.40;67.70;;;;;;4885366;29;20174;-80
2023/05/27 01:12:11;;;;;;;71.97;6.75;;;11.30;71.70;;;;;;4885173;29;20244;-80
2023/05/27 01:14:38;;;;;;;70.43;7.25;;;11.20;73.50;;;;;;4885609;29;20175;-80
2023/05/27 01:17:06;;;;;;;76.93;7.75;;;11.20;78.90;;;;;;4886140;29;20666;-80
2023/05/27 01:19:42;;;;;;;76.45;7.45;;;11.10;79.70;;;;;;4884201;29;20179;-80
2023/05/27 01:22:10;;;;;;;77.43;7.45;;;11.10;80.30;;;;;;4884171;29;20162;-80
2023/05/27 01:24:37;;;;;;;75.88;7.55;;;11.10;81.80;;;;;;4885417;29;20182;-80
2023/05/27 01:27:03;;;;;;;74.72;7.57;;;11.00;81.60;;;;;;4885184;29;20238;-80
2023/05/27 01:29:30;;;;;;;78.20;7.70;;;11.00;81.60;;;;;;4885307;29;20169;-80
2023/05/27 01:32:27;;;;;;;74.18;7.97;;;11.00;87.10;;;;;;4885266;29;20163;-80
2023/05/27 01:34:53;;;;;;;72.55;6.88;;;10.90;85.60;;;;;;4884448;29;20269;-80
2023/05/27 01:37:21;;;;;;;69.27;6.63;;;10.90;85.60;;;;;;4884831;29;20237;-80
2023/05/27 01:39:49;;;;;;;75.85;9.02;;;10.90;87.30;;;;;;4885008;29;20207;-80
2023/05/27 01:42:20;;;;;;;81.07;9.07;;;10.90;87.40;;;;;;4883419;29;20186;-80
2023/05/27 01:44:46;;;;;;;75.40;8.57;;;10.70;90.10;;;;;;4883735;29;20599;-80
2023/05/27 01:47:12;;;;;;;79.28;8.68;;;10.70;90.20;;;;;;4885217;29;20662;-80
2023/05/27 01:49:37;;;;;;;72.47;10.03;;;10.70;90.80;;;;;;4884829;29;20182;-80
2023/05/27 01:52:03;;;;;;;71.10;8.10;;;10.70;90.20;;;;;;4885112;29;20560;-80
2023/05/27 01:54:29;;;;;;;72.00;8.10;;;10.60;91.90;;;;;;4884598;29;20538;-80
2023/05/27 01:56:55;;;;;;;79.63;10.23;;;10.60;92.90;;;;;;4884305;29;20534;-80
2023/05/27 01:59:20;;;;;;;71.03;8.33;;;10.60;93.00;;;;;;4884706;29;20171;-80
2023/05/27 02:01:46;;;;;;;72.27;10.00;;;10.50;93.90;;;;;;4884821;29;20658;-80
2023/05/27 02:04:12;;;;;;;69.70;9.07;;;10.50;93.90;;;;;;4884232;29;20175;-80
2023/05/27 02:06:37;;;;;;;74.10;9.40;;;10.50;93.40;;;;;;4884134;29;20431;-80
2023/05/27 02:09:04;;;;;;;75.30;11.47;;;10.50;92.80;;;;;;4884980;29;20174;-79
2023/05/27 02:11:30;;;;;;;76.38;9.57;;;10.40;93.30;;;;;;4883126;29;20175;-80
2023/05/27 02:13:59;;;;;;;73.07;9.23;;;10.40;95.00;;;;;;4882961;29;20203;-80
2023/05/27 02:16:25;;;;;;;76.50;10.68;;;10.40;95.00;;;;;;4884390;29;20529;-80
2023/05/27 02:18:51;;;;;;;76.00;10.10;;;10.30;95.80;;;;;;4884341;29;20171;-80
2023/05/27 02:21:17;;;;;;;72.00;10.17;;;10.30;96.60;;;;;;4883938;29;20649;-80
2023/05/27 02:23:42;;;;;;;77.30;9.33;;;10.30;96.60;;;;;;4884462;29;20303;-80
2023/05/27 02:26:10;;;;;;;78.23;10.87;;;10.50;92.60;;;;;;4883631;29;20190;-80
2023/05/27 02:28:42;;;;;;;86.95;12.63;;;10.50;92.00;;;;;;4884041;29;20225;-80
2023/05/27 02:31:08;;;;;;;74.05;9.75;;;10.40;93.30;;;;;;4884669;29;20511;-80
2023/05/27 02:33:34;;;;;;;80.95;10.82;;;10.30;94.30;;;;;;4882616;29;20170;-79
2023/05/27 02:35:59;;;;;;;74.60;9.77;;;10.30;96.70;;;;;;4882801;29;20277;-80
2023/05/27 02:38:25;;;;;;;74.63;10.67;;;10.20;98.50;;;;;;4884173;29;20407;-80
2023/05/27 02:40:51;;;;;;;80.80;11.23;;;10.20;97.20;;;;;;4882346;29;20189;-80
2023/05/27 02:43:17;;;;;;;73.60;10.60;;;10.20;96.90;;;;;;4882911;29;20415;-80
2023/05/27 02:45:43;;;;;;;76.17;11.87;;;10.20;97.90;;;;;;4883992;29;20639;-80
2023/05/27 02:48:08;;;;;;;70.70;9.60;;;10.10;98.60;;;;;;4883806;29;20482;-80
2023/05/27 02:50:34;;;;;;;71.50;10.70;;;10.10;98.30;;;;;;4882633;29;20194;-80
2023/05/27 02:53:00;;;;;;;71.20;11.30;;;9.90;98.50;;;;;;4883884;29;20174;-80
2023/05/27 02:55:25;;;;;;;77.13;12.30;;;9.90;99.90;;;;;;4883390;29;20172;-80
2023/05/27 02:57:51;;;;;;;76.57;13.57;;;9.80;99.90;;;;;;4883948;29;20266;-80
2023/05/27 03:00:17;;;;;;;79.43;14.33;;;9.70;99.90;;;;;;4883719;29;20186;-80
2023/05/27 03:02:43;;;;;;;71.85;10.55;;;9.70;99.90;;;;;;4883615;29;20706;-80
2023/05/27 03:05:11;;;;;;;76.37;13.37;;;9.70;99.90;;;;;;4882418;29;20262;-80
2023/05/27 03:07:37;;;;;;;78.88;11.48;;;9.60;99.90;;;;;;4882024;29;20890;-79
2023/05/27 03:10:06;;;;;;;73.53;13.33;;;9.60;99.90;;;;;;4883350;29;20162;-80
2023/05/27 03:12:31;;;;;;;71.72;11.70;;;9.60;99.90;;;;;;4882062;29;20173;-79
2023/05/27 03:14:57;;;;;;;73.70;12.93;;;9.60;99.90;;;;;;4883642;29;20612;-80
2023/05/27 03:17:23;;;;;;;76.20;13.20;;;9.60;99.90;;;;;;4881774;29;20586;-80
2023/05/27 03:19:48;;;;;;;75.03;15.77;;;9.60;99.90;;;;;;4883263;29;20265;-80
2023/05/27 03:22:14;;;;;;;71.07;14.40;;;9.50;99.90;;;;;;4883681;29;20218;-80
2023/05/27 03:24:40;;;;;;;75.10;15.53;;;9.40;99.90;;;;;;4883518;29;20178;-80
2023/05/27 03:27:06;;;;;;;75.17;18.67;;;9.40;99.90;;;;;;4881701;29;20603;-80
2023/05/27 03:29:38;;;;;;;74.43;16.93;;;9.40;99.90;;;;;;4882506;29;20427;-80
2023/05/27 03:32:03;;;;;;;83.32;14.82;;;9.40;99.90;;;;;;4883510;29;20502;-80
2023/05/27 03:34:29;;;;;;;76.07;15.83;;;9.30;99.90;;;;;;4881587;29;20258;-80
2023/05/27 03:36:58;;;;;;;75.40;15.67;;;9.20;99.90;;;;;;4881388;29;20439;-80
2023/05/27 03:39:23;;;;;;;82.13;16.77;;;9.30;99.90;;;;;;4882974;29;20170;-80
2023/05/27 03:41:49;;;;;;;78.70;18.33;;;9.30;99.90;;;;;;4895148;23;20305;-77
2023/05/27 03:44:15;;;;;;;74.63;20.13;;;9.20;99.90;;;;;;4880436;29;20207;-77
2023/05/27 03:46:41;;;;;;;79.43;22.33;;;9.20;99.90;;;;;;4880370;29;20427;-77
2023/05/27 03:49:06;;;;;;;75.43;18.33;;;9.20;99.90;;;;;;4880356;29;20170;-77
2023/05/27 03:51:32;;;;;;;79.13;18.57;;;9.20;99.90;;;;;;4880160;29;20171;-77
2023/05/27 03:53:58;;;;;;;77.23;19.23;;;9.20;99.90;;;;;;4880065;29;20174;-77
2023/05/27 03:56:23;;;;;;;74.63;15.77;;;9.20;99.90;;;;;;4880131;29;20730;-77
2023/05/27 03:58:50;;;;;;;78.20;21.07;;;9.30;99.90;;;;;;4879913;29;20170;-77
2023/05/27 04:01:16;;;;;;;88.38;17.42;;;9.30;99.90;;;;;;4879854;29;20200;-77
2023/05/27 04:03:43;;;;;;;79.05;16.35;;;9.30;99.90;;;;;;4879918;29;20170;-77
2023/05/27 04:06:09;;;;;;;73.13;14.43;;;9.30;99.90;;;;;;4879744;29;20193;-77
2023/05/27 04:08:35;;;;;;;76.30;18.55;;;9.30;99.90;;;;;;4879739;29;20206;-77
2023/05/27 04:11:02;;;;;;;77.40;18.00;;;9.40;99.90;;;;;;4879806;29;20520;-77
2023/05/27 04:13:27;;;;;;;81.32;25.13;;;9.30;99.90;;;;;;4878840;29;20904;-77
2023/05/27 04:15:53;;;;;;;75.33;19.67;;;9.40;99.90;;;;;;4879890;29;20221;-75
2023/05/27 04:18:19;;;;;;;77.57;22.67;;;9.40;99.90;;;;;;4879565;29;20179;-75
2023/05/27 04:20:47;;;;;;;84.93;25.50;;;9.40;99.90;;;;;;4879817;29;20433;-75
2023/05/27 04:23:13;;;;;;;79.18;23.30;;;9.40;99.90;;;;;;4879547;29;20531;-75
2023/05/27 04:25:40;;;;;;;79.00;25.77;;;9.40;99.90;;;;;;4879945;29;20167;-75
2023/05/27 04:28:08;;;;;;;82.28;30.33;;;9.40;99.90;;;;;;4879423;29;20191;-75
2023/05/27 04:30:34;;;;;;;87.88;32.25;;;9.40;99.90;;;;;;4879732;29;20568;-75
2023/05/27 04:33:00;;;;;;;84.43;27.13;;;9.50;99.90;;;;;;4879982;29;20623;-75
2023/05/27 04:35:26;;;;;;;77.90;25.75;;;9.50;99.90;;;;;;4879416;29;20232;-75
2023/05/27 04:37:52;;;;;;;81.13;32.55;;;9.50;99.90;;;;;;4879362;29;20603;-75
2023/05/27 04:40:19;;;;;;;82.83;29.17;;;9.70;99.90;;;;;;4879712;29;20174;-75
2023/05/27 04:42:45;;;;;;;78.88;27.02;;;9.80;99.90;;;;;;4878038;29;20562;-75
2023/05/27 04:45:14;;;;;;;75.50;14.70;;;10.10;99.90;;;;;;4879455;29;20182;-75
2023/05/27 04:47:40;;;;;;;72.20;10.93;;;10.40;99.90;;;;;;4879270;29;20199;-75
2023/05/27 04:50:10;;;;;;;78.93;9.73;;;10.60;99.90;;;;;;4879319;29;20219;-75
2023/05/27 04:52:41;;;;;;;74.20;13.05;;;10.90;99.90;;;;;;4879543;29;20257;-75
2023/05/27 04:55:09;;;;;;;74.32;10.52;;;11.20;99.90;;;;;;4878203;29;20155;-75
2023/05/27 04:57:36;;;;;;;79.05;7.57;;;11.50;99.90;;;;;;4879221;29;20318;-75
2023/05/27 05:02:36;;;;;;;70.70;6.95;;;12.00;93.60;;;;;;4879466;29;20243;-75
2023/05/27 05:05:02;;;;;;;74.30;7.63;;;12.20;89.10;;;;;;4879467;29;20159;-75
2023/05/27 05:07:28;;;;;;;78.78;7.05;;;12.40;84.10;;;;;;4879279;29;20205;-75
2023/05/27 05:09:54;;;;;;;77.10;6.50;;;12.40;82.70;;;;;;4879369;29;20158;-76
2023/05/27 05:12:20;;;;;;;71.87;6.30;;;12.50;75.70;;;;;;4879166;29;20194;-75
2023/05/27 05:14:46;;;;;;;75.43;7.73;;;12.60;74.40;;;;;;4879157;29;20414;-75
2023/05/27 05:17:11;;;;;;;78.40;7.00;;;12.70;78.00;;;;;;4879126;29;20195;-75
2023/05/27 05:19:37;;;;;;;72.37;6.80;;;12.80;66.40;;;;;;4879195;29;20171;-75
2023/05/27 05:22:03;;;;;;;73.40;6.07;;;12.90;62.40;;;;;;4877837;29;20175;-75
2023/05/27 05:24:28;;;;;;;73.77;7.20;;;12.80;60.20;;;;;;4880887;29;20178;-75
2023/05/27 05:26:54;;;;;;;72.97;6.90;;;12.70;65.60;;;;;;4882473;29;20201;-75
2023/05/27 05:29:20;;;;;;;72.43;7.20;;;12.70;83.60;;;;;;4881226;29;20174;-75
2023/05/27 05:31:45;;;;;;;71.40;6.80;;;12.70;80.50;;;;;;4882724;29;20167;-75
2023/05/27 05:34:11;;;;;;;74.87;8.23;;;12.80;79.90;;;;;;4881135;29;20542;-75
2023/05/27 05:36:37;;;;;;;72.80;7.47;;;12.70;77.60;;;;;;4882310;29;20190;-75
2023/05/27 05:39:04;;;;;;;79.67;8.20;;;12.60;79.90;;;;;;4882274;29;20415;-75
2023/05/27 05:41:30;;;;;;;74.20;8.93;;;12.60;86.70;;;;;;4882166;29;20514;-76
2023/05/27 05:43:55;;;;;;;78.37;9.70;;;12.60;93.20;;;;;;4882235;29;20399;-75
2023/05/27 05:46:21;;;;;;;81.70;8.00;;;12.60;95.50;;;;;;4882105;29;20958;-75
2023/05/27 05:48:47;;;;;;;79.93;8.20;;;12.70;94.10;;;;;;4882060;29;20197;-75
2023/05/27 05:51:12;;;;;;;73.23;7.80;;;12.80;93.90;;;;;;4882084;29;20647;-75
2023/05/27 05:53:38;;;;;;;76.30;7.90;;;12.80;83.90;;;;;;4882554;29;20854;-75
2023/05/27 05:56:04;;;;;;;76.53;7.70;;;12.80;56.90;;;;;;4881926;29;20194;-75
2023/05/27 05:58:30;;;;;;;78.60;7.90;;;12.80;51.40;;;;;;4882499;29;20195;-75
2023/05/27 06:00:56;;;;;;;79.50;8.00;;;12.90;57.40;;;;;;4881925;29;20439;-75
2023/05/27 06:03:21;;;;;;;82.80;6.77;;;13.00;60.00;;;;;;4881873;29;20531;-75
2023/05/27 06:05:47;;;;;;;87.73;7.40;;;12.90;33.70;;;;;;4882078;29;20211;-75
2023/05/27 06:08:13;;;;;;;84.30;7.60;;;12.90;40.70;;;;;;4881921;29;20210;-75
2023/05/27 06:10:38;;;;;;;75.00;7.03;;;13.00;39.20;;;;;;4881704;29;20167;-75
2023/05/27 06:13:05;;;;;;;74.17;6.40;;;13.10;47.30;;;;;;4881638;29;20170;-75
2023/05/27 06:15:31;;;;;;;79.53;8.20;;;13.20;49.10;;;;;;4881678;29;20194;-75
2023/05/27 06:17:57;;;;;;;75.70;7.27;;;13.40;53.20;;;;;;4880282;29;20435;-75
2023/05/27 06:20:23;;;;;;;78.70;8.03;;;13.40;45.90;;;;;;4881567;29;20824;-75
2023/05/27 06:22:49;;;;;;;77.03;7.70;;;13.50;43.40;;;;;;4881490;29;20178;-75
2023/05/27 06:25:15;;;;;;;72.00;7.17;;;13.50;24.70;;;;;;4880246;29;20415;-75
2023/05/27 06:27:41;;;;;;;76.83;6.60;;;13.50;23.40;;;;;;4881561;29;20214;-75
2023/05/27 06:30:07;;;;;;;72.10;7.30;;;13.60;32.80;;;;;;4881393;29;20901;-75
2023/05/27 06:32:33;;;;;;;78.23;6.80;;;13.60;26.20;;;;;;4881367;29;20670;-75
2023/05/27 06:34:58;;;;;;;73.73;7.33;;;13.70;19.50;;;;;;4880901;29;20407;-75
2023/05/27 06:37:24;;;;;;;76.50;7.13;;;13.70;21.50;;;;;;4880791;29;20193;-77
2023/05/27 06:39:50;;;;;;;73.73;6.97;;;13.70;22.00;;;;;;4881258;29;20171;-77
2023/05/27 06:42:15;;;;;;;75.63;6.07;;;13.80;13.50;;;;;;4881328;29;20217;-77
2023/05/27 06:44:41;;;;;;;79.23;6.83;;;13.90;16.40;;;;;;4881247;29;20175;-76
2023/05/27 06:47:07;;;;;;;72.87;6.20;;;13.90;9.60;;;;;;4880961;29;20249;-75
2023/05/27 06:49:33;;;;;;;75.17;6.67;;;13.80;10.40;;;;;;4881573;29;20421;-75
2023/05/27 06:51:59;;;;;;;76.20;6.30;;;13.90;12.70;;;;;;4881296;29;20202;-75
2023/05/27 06:54:24;;;;;;;72.60;7.60;;;14.00;13.20;;;;;;4880964;29;20167;-75
2023/05/27 06:56:50;;;;;;;70.77;6.63;;;14.10;21.00;;;;;;4880885;29;20803;-75
2023/05/27 06:59:16;;;;;;;75.30;6.67;;;14.20;12.60;;;;;;4880890;29;20175;-75
2023/05/27 07:01:41;;;;;;;81.90;7.67;;;14.10;10.00;;;;;;4881638;29;20175;-75
2023/05/27 07:04:07;;;;;;;73.83;7.20;;;14.20;10.30;;;;;;4880788;29;20204;-75
2023/05/27 07:06:32;;;;;;;75.23;6.63;;;14.20;5.50;;;;;;4880695;29;20186;-75
2023/05/27 07:08:58;;;;;;;74.03;6.90;;;14.20;3.00;;;;;;4880657;29;20190;-75
2023/05/27 07:11:25;;;;;;;75.07;7.03;;;14.30;10.40;;;;;;4880626;29;20180;-75
2023/05/27 07:13:51;;;;;;;74.50;7.40;;;14.30;7.00;;;;;;4880895;29;20523;-75
2023/05/27 07:16:16;;;;;;;77.27;6.40;;;14.40;1.00;;;;;;4880808;29;20419;-75
2023/05/27 07:18:43;;;;;;;75.67;7.27;;;14.40;1.00;;;;;;4880555;29;20659;-75
2023/05/27 07:21:08;;;;;;;73.23;7.13;;;14.50;1.00;;;;;;4880692;29;20189;-75
2023/05/27 07:23:34;;;;;;;79.37;7.53;;;14.60;1.00;;;;;;4880760;29;20385;-75
2023/05/27 07:26:00;;;;;;;70.67;6.30;;;14.70;4.70;;;;;;4880926;29;20685;-75
2023/05/27 07:28:25;;;;;;;79.93;7.93;;;14.60;1.00;;;;;;4880280;29;20270;-75
2023/05/27 07:30:51;;;;;;;72.73;6.57;;;14.70;1.10;;;;;;4880489;29;20159;-75
2023/05/27 07:33:17;;;;;;;76.97;6.37;;;14.80;1.00;;;;;;4880848;29;20236;-75
2023/05/27 07:35:43;;;;;;;80.57;6.87;;;14.80;1.00;;;;;;4880713;29;20388;-75
2023/05/27 07:38:10;;;;;;;84.17;7.03;;;14.90;1.90;;;;;;4878974;29;20845;-75
2023/05/27 07:40:35;;;;;;;83.63;8.00;;;14.70;1.00;;;;;;4880207;29;20427;-75
2023/05/27 07:43:01;;;;;;;74.03;7.10;;;14.80;1.00;;;;;;4880018;29;20454;-75
2023/05/27 07:45:28;;;;;;;78.50;7.63;;;14.90;1.00;;;;;;4880116;29;20171;-75
2023/05/27 07:47:53;;;;;;;74.20;6.20;;;15.10;1.00;;;;;;4879746;29;20452;-75
2023/05/27 07:50:19;;;;;;;75.63;6.80;;;15.20;1.00;;;;;;4879936;29;20919;-75
2023/05/27 07:52:45;;;;;;;77.43;7.50;;;15.20;1.00;;;;;;4880211;29;20256;-75
2023/05/27 07:55:11;;;;;;;76.33;6.93;;;15.30;1.00;;;;;;4880173;29;20179;-75
2023/05/27 07:57:36;;;;;;;76.33;6.53;;;15.40;1.00;;;;;;4880094;29;20229;-75
2023/05/27 08:00:05;;;;;;;73.93;6.90;;;15.40;1.00;;;;;;4879741;29;20172;-75
2023/05/27 08:02:31;;;;;;;73.63;7.63;;;15.40;1.00;;;;;;4880086;29;20170;-75
2023/05/27 08:04:57;;;;;;;71.73;6.17;;;15.40;1.00;;;;;;4880307;29;20420;-75
2023/05/27 08:07:22;;;;;;;74.50;7.27;;;15.40;1.00;;;;;;4879621;29;20199;-75
2023/05/27 08:09:48;;;;;;;77.07;8.03;;;15.50;1.00;;;;;;4879711;29;20416;-75
2023/05/27 08:12:14;;;;;;;72.93;7.10;;;15.60;1.00;;;;;;4879743;29;20172;-75
2023/05/27 08:14:43;;;;;;;74.70;7.20;;;15.70;1.00;;;;;;4879671;29;20533;-75
2023/05/27 08:17:09;;;;;;;71.70;6.57;;;15.70;1.00;;;;;;4879604;29;20191;-75
2023/05/27 08:19:35;;;;;;;73.63;7.13;;;15.80;1.00;;;;;;4879660;29;20409;-75
2023/05/27 08:22:02;;;;;;;75.80;6.33;;;15.90;1.00;;;;;;4879579;29;20412;-75
2023/05/27 08:24:28;;;;;;;72.93;7.47;;;15.80;1.00;;;;;;4879578;29;20624;-75
2023/05/27 08:26:53;;;;;;;71.87;7.90;;;15.80;1.00;;;;;;4879538;29;20429;-75
2023/05/27 08:29:19;;;;;;;72.77;6.70;;;15.90;1.00;;;;;;4879587;29;20413;-75
2023/05/27 08:31:45;;;;;;;74.83;7.27;;;16.00;1.00;;;;;;4879461;29;20168;-75
2023/05/27 08:34:11;;;;;;;79.20;7.23;;;16.10;1.00;;;;;;4879510;29;20168;-75
2023/05/27 08:36:37;;;;;;;82.40;8.40;;;16.20;1.00;;;;;;4879372;29;20530;-75
2023/05/27 08:39:04;;;;;;;71.57;7.77;;;16.30;1.00;;;;;;4879681;29;20173;-75
2023/05/27 08:41:30;;;;;;;82.63;8.87;;;16.30;1.00;;;;;;4879262;29;20440;-75
2023/05/27 08:43:56;;;;;;;75.70;8.13;;;16.40;1.00;;;;;;4879392;29;20983;-75
2023/05/27 08:46:22;;;;;;;70.87;7.80;;;16.40;1.00;;;;;;4879535;29;20426;-75
2023/05/27 08:48:49;;;;;;;73.73;7.53;;;16.50;1.00;;;;;;4879255;29;20450;-75
2023/05/27 08:51:18;;;;;;;74.30;7.20;;;16.60;1.00;;;;;;4879561;29;20449;-75
2023/05/27 08:53:46;;;;;;;71.83;8.83;;;16.70;1.00;;;;;;4879340;29;20421;-75
2023/05/27 08:56:14;;;;;;;73.67;7.93;;;16.80;1.00;;;;;;4879497;29;20443;-75
2023/05/27 08:58:43;;;;;;;73.70;8.50;;;17.00;1.00;;;;;;4879663;29;20413;-75
2023/05/27 09:01:09;;;;;;;76.10;7.57;;;17.10;1.00;;;;;;4882989;29;20433;-75
2023/05/27 09:03:35;;;;;;;71.47;6.10;;;17.10;1.00;;;;;;4883463;29;20486;-75
2023/05/27 09:06:03;;;;;;;71.83;6.97;;;17.20;1.00;;;;;;4881570;29;20449;-76
2023/05/27 09:08:30;;;;;;;79.13;8.00;;;17.30;1.00;;;;;;4882782;29;20561;-75
2023/05/27 09:10:56;;;;;;;75.63;7.70;;;17.50;1.00;;;;;;4882820;29;20531;-75
2023/05/27 09:13:29;;;;;;;73.47;7.33;;;17.60;1.00;;;;;;4883030;29;20963;-75
2023/05/27 09:16:03;;;;;;;71.50;6.13;;;17.70;1.00;;;;;;4882634;29;20465;-75
2023/05/27 09:18:31;;;;;;;75.77;6.73;;;17.80;1.00;;;;;;4882956;29;20938;-75
2023/05/27 09:20:57;;;;;;;73.37;6.50;;;18.00;1.00;;;;;;4883208;29;20411;-75
2023/05/27 09:23:22;;;;;;;77.90;7.40;;;18.10;1.00;;;;;;4882616;29;20415;-75
2023/05/27 09:25:49;;;;;;;76.77;7.80;;;18.30;1.00;;;;;;4882503;29;20497;-75
2023/05/27 09:28:26;;;;;;;73.93;8.37;;;18.30;1.00;;;;;;4882714;29;20542;-75
2023/05/27 09:31:05;;;;;;;74.93;7.10;;;18.30;1.00;;;;;;4881247;29;20915;-75
2023/05/27 09:33:35;;;;;;;82.17;8.60;;;18.50;1.00;;;;;;4882608;29;20422;-75
2023/05/27 09:36:06;;;;;;;71.47;8.20;;;18.70;1.00;;;;;;4882606;29;20788;-75
2023/05/27 09:38:33;;;;;;;77.50;11.40;;;18.90;1.00;;;;;;4883108;29;20942;-75
2023/05/27 09:40:59;;;;;;;73.37;9.50;;;19.00;1.00;;;;;;4882329;29;20423;-75
2023/05/27 09:43:50;;;;;;;73.53;10.00;;;19.10;1.00;;;;;;4975391;23;20494;-82
2023/05/27 09:47:02;;;;;;;76.07;10.30;;;19.20;1.00;;;;;;4890489;29;20450;-82
2023/05/27 09:49:53;;;;;;;75.50;14.37;;;19.20;1.00;;;;;;4884340;29;20435;-82
2023/05/27 09:52:39;;;;;;;73.80;11.80;;;19.50;1.00;;;;;;4888378;29;20412;-82
2023/05/27 09:55:35;;;;;;;78.33;12.40;;;19.70;1.00;;;;;;4889561;29;20387;-82
2023/05/27 10:01:21;;;;;;;81.57;10.17;;;20.00;1.00;;;;;;4892732;29;20431;-82
2023/05/27 10:07:21;;;;;;;75.03;11.40;;;20.60;1.00;;;;;;4620942;23;20535;-82
2023/05/27 10:13:52;;;;;;;72.87;6.13;;;21.00;1.00;;;;;;4892019;29;20755;-82
2023/05/27 10:20:19;;;;;;;72.57;4.97;;;21.00;1.00;;;;;;4856482;29;20407;-82
2023/05/27 10:23:30;;;;;;;75.00;5.43;;;21.30;1.00;;;;;;4890377;29;20410;-83
2023/05/27 10:29:23;;;;;;;73.40;5.63;;;21.30;1.00;;;;;;4790122;29;20505;-82
2023/05/27 10:31:58;;;;;;;77.87;5.47;;;21.80;1.00;;;;;;4814863;29;20436;-82
2023/05/27 10:34:37;;;;;;;79.37;5.63;;;22.10;1.00;;;;;;4814988;29;20421;-82
2023/05/27 10:37:03;;;;;;;72.37;4.60;;;22.30;1.00;;;;;;4862448;29;20450;-82
2023/05/27 10:39:29;;;;;;;75.97;4.80;;;22.70;1.00;;;;;;4891046;29;20483;-82
2023/05/27 10:41:59;;;;;;;79.30;6.23;;;22.80;1.00;;;;;;4891619;29;20415;-82
2023/05/27 10:44:34;;;;;;;73.97;5.93;;;23.00;1.00;;;;;;4891298;29;20391;-82
2023/05/27 10:47:08;;;;;;;74.30;5.50;;;23.30;1.00;;;;;;4889458;29;20458;-83
2023/05/27 10:49:35;;;;;;;75.60;5.27;;;23.10;1.00;;;;;;4888086;29;20424;-82
2023/05/27 10:52:11;;;;;;;76.57;7.17;;;22.80;1.00;;;;;;4889362;29;20419;-82
2023/05/27 10:54:37;;;;;;;74.67;5.87;;;23.00;1.00;;;;;;4890835;29;20767;-82
2023/05/27 10:57:03;;;;;;;74.10;5.53;;;23.30;1.00;;;;;;4888729;29;20451;-82
2023/05/27 10:59:45;;;;;;;73.90;6.13;;;23.50;1.00;;;;;;4888630;29;20448;-82
2023/05/27 11:02:11;;;;;;;71.30;5.20;;;23.70;1.00;;;;;;4890278;29;20868;-82
2023/05/27 11:04:37;;;;;;;72.37;5.17;;;23.60;1.00;;;;;;4890189;29;20501;-82
2023/05/27 11:07:04;;;;;;;74.57;5.20;;;23.80;1.00;;;;;;4890573;29;20455;-82
2023/05/27 11:09:52;;;;;;;71.77;5.20;;;24.00;1.00;;;;;;4893998;29;20155;-83
2023/05/27 11:12:23;;;;;;;75.27;4.63;;;24.00;1.00;;;;;;4890913;29;20452;-82
2023/05/27 11:14:51;;;;;;;75.30;5.30;;;23.20;1.00;;;;;;4890863;29;20419;-82
2023/05/27 11:17:20;;;;;;;76.77;6.07;;;23.30;1.00;;;;;;4888555;29;20804;-82
2023/05/27 11:22:22;;;;;;;73.90;4.40;;;23.70;1.00;;;;;;5162885;23;20553;-82
2023/05/27 11:25:10;;;;;;;82.57;11.45;;;24.10;1.00;;;;;;4888568;29;20426;-82
2023/05/27 11:27:53;;;;;;;;;;;;;;;;;;;;;
2023/05/27 11:30:24;;;;;;;77.57;5.73;;;24.00;1.00;;;;;;4890309;29;20482;-82
2023/05/27 11:33:12;;;;;;;81.63;13.50;;;24.40;1.00;;;;;;4889407;29;20422;-83
2023/05/27 11:35:41;;;;;;;76.10;5.00;;;24.60;1.00;;;;;;4889077;29;20259;-83
2023/05/27 11:38:17;;;;;;;74.80;5.77;;;24.40;1.00;;;;;;4889187;29;20444;-83
2023/05/27 11:41:11;;;;;;;72.50;5.10;;;24.30;1.00;;;;;;4887242;29;20423;-82
2023/05/27 11:44:14;;;;;;;79.73;5.23;;;24.30;1.00;;;;;;4881281;29;20489;-82
2023/05/27 11:46:44;;;;;;;74.43;5.33;;;24.80;1.00;;;;;;4881875;29;20949;-82
2023/05/27 11:49:15;;;;;;;76.40;4.50;;;25.00;1.00;;;;;;4886892;29;20450;-82
2023/05/27 11:51:48;;;;;;;73.20;4.63;;;25.20;1.00;;;;;;4886219;29;20409;-83
2023/05/27 11:54:26;;;;;;;72.40;4.10;;;25.50;1.00;;;;;;4884802;29;20950;-83
2023/05/27 11:57:02;;;;;;;77.33;4.47;;;25.40;1.00;;;;;;4883918;29;20432;-82
2023/05/27 11:59:28;;;;;;;77.80;5.47;;;25.10;1.00;;;;;;4885028;29;20395;-82
2023/05/27 12:01:54;;;;;;;75.77;4.83;;;24.90;1.00;;;;;;4883476;29;20423;-82
2023/05/27 12:04:20;;;;;;;74.90;4.70;;;25.10;1.00;;;;;;4884643;29;20566;-82
2023/05/27 12:06:46;;;;;;;73.27;4.80;;;25.30;1.00;;;;;;4885097;29;20200;-82
2023/05/27 12:09:14;;;;;;;74.50;4.60;;;25.20;1.00;;;;;;4884819;29;20449;-82
2023/05/27 12:11:40;;;;;;;77.10;4.70;;;25.50;1.00;;;;;;4884063;29;20418;-82
2023/05/27 12:14:06;;;;;;;74.60;3.90;;;26.00;1.00;;;;;;4882657;29;20434;-82
2023/05/27 12:16:32;;;;;;;72.60;3.70;;;26.00;1.00;;;;;;4883250;29;20507;-82
2023/05/27 12:18:58;;;;;;;73.37;4.63;;;26.40;1.00;;;;;;4884440;29;20631;-83
2023/05/27 12:21:24;;;;;;;73.47;4.90;;;26.60;1.00;;;;;;4883821;29;20167;-83
2023/05/27 12:23:50;;;;;;;73.40;4.60;;;26.30;1.00;;;;;;4882680;29;20439;-82
2023/05/27 12:26:16;;;;;;;75.50;5.07;;;25.90;1.00;;;;;;4882390;29;20473;-82
2023/05/27 12:28:42;;;;;;;73.27;4.90;;;26.00;1.00;;;;;;4882104;29;20474;-83
2023/05/27 12:31:08;;;;;;;75.00;4.50;;;26.20;1.00;;;;;;4881851;29;20514;-83
2023/05/27 12:33:39;;;;;;;80.10;3.73;;;25.90;1.00;;;;;;4883371;29;20415;-83
2023/05/27 12:36:05;;;;;;;72.43;3.57;;;25.00;1.00;;;;;;4883694;29;20194;-82
2023/05/27 12:38:31;;;;;;;75.37;4.40;;;24.80;1.00;;;;;;4883209;29;20775;-82
2023/05/27 12:40:59;;;;;;;71.67;4.10;;;25.00;1.00;;;;;;4882724;29;20418;-82
2023/05/27 12:43:25;;;;;;;74.57;4.13;;;25.20;1.00;;;;;;4882281;29;20424;-82
2023/05/27 12:45:52;;;;;;;76.47;4.73;;;24.90;1.00;;;;;;4883047;29;20425;-82
2023/05/27 12:48:18;;;;;;;73.70;4.40;;;24.90;1.00;;;;;;4883105;29;20227;-83
2023/05/27 12:50:44;;;;;;;73.03;4.40;;;25.30;1.00;;;;;;4884359;29;20446;-82
2023/05/27 12:53:10;;;;;;;74.47;4.73;;;25.20;1.00;;;;;;4883226;29;20414;-82
2023/05/27 12:55:36;;;;;;;72.77;4.10;;;25.30;1.00;;;;;;4883622;29;20493;-83
2023/05/27 12:58:02;;;;;;;72.17;4.67;;;25.60;1.00;;;;;;4883836;29;20225;-82
2023/05/27 13:00:28;;;;;;;71.83;5.10;;;25.50;1.00;;;;;;4882050;29;20469;-83
2023/05/27 13:02:54;;;;;;;74.20;4.53;;;25.70;1.00;;;;;;4882807;29;20182;-82
2023/05/27 13:05:19;;;;;;;73.97;4.60;;;25.60;1.00;;;;;;4883325;29;20418;-83
2023/05/27 13:07:58;;;;;;;75.13;4.40;;;25.50;1.00;;;;;;4883064;29;20201;-82